sensor_id;sensor_type;location;lat;lon;timestamp;P1;durP1;ratioP1;P2;durP2;ratioP2
80647;SDS011;70012;0.000;0.000;2024-03-08T00:00:06;17.98;;;10.73;;
80647;SDS011;70012;0.000;0.000;2024-03-08T00:02:47;19.45;;;10.45;;
80647;SDS011;70012;0.000;0.000;2024-03-08T00:07:42;15.98;;;9.82;;
80647;SDS011;70012;0.000;0.000;2024-03-08T00:10:10;16.15;;;10.02;;
80647;SDS011;70012;0.000;0.000;2024-03-08T00:12:41;17.27;;;9.93;;
80647;SDS011;70012;0.000;0.000;2024-03-08T00:15:10;17.85;;;10.50;;
80647;SDS011;70012;0.000;0.000;2024-03-08T00:17:44;17.92;;;10.45;;
80647;SDS011;70012;0.000;0.000;2024-03-08T00:20:11;16.90;;;10.50;;
80647;SDS011;70012;0.000;0.000;2024-03-08T00:22:40;17.83;;;11.00;;
80647;SDS011;70012;0.000;0.000;2024-03-08T00:25:08;19.35;;;10.93;;
80647;SDS011;70012;0.000;0.000;2024-03-08T00:27:36;17.10;;;10.15;;
80647;SDS011;70012;0.000;0.000;2024-03-08T00:32:31;17.00;;;9.48;;
80647;SDS011;70012;0.000;0.000;2024-03-08T00:34:58;20.42;;;10.63;;
80647;SDS011;70012;0.000;0.000;2024-03-08T00:37:25;17.02;;;9.93;;
80647;SDS011;70012;0.000;0.000;2024-03-08T00:39:55;17.63;;;10.73;;
80647;SDS011;70012;0.000;0.000;2024-03-08T00:42:22;19.38;;;10.32;;
80647;SDS011;70012;0.000;0.000;2024-03-08T00:44:49;18.77;;;9.88;;
80647;SDS011;70012;0.000;0.000;2024-03-08T00:47:19;18.85;;;10.77;;
80647;SDS011;70012;0.000;0.000;2024-03-08T00:49:46;21.48;;;10.43;;
80647;SDS011;70012;0.000;0.000;2024-03-08T00:57:10;13.25;;;8.15;;
80647;SDS011;70012;0.000;0.000;2024-03-08T00:59:37;15.82;;;9.52;;
80647;SDS011;70012;0.000;0.000;2024-03-08T01:02:06;20.83;;;10.35;;
80647;SDS011;70012;0.000;0.000;2024-03-08T01:04:35;17.60;;;10.90;;
80647;SDS011;70012;0.000;0.000;2024-03-08T01:07:02;15.77;;;10.25;;
80647;SDS011;70012;0.000;0.000;2024-03-08T01:09:29;17.08;;;9.45;;
80647;SDS011;70012;0.000;0.000;2024-03-08T01:11:55;18.45;;;10.68;;
80647;SDS011;70012;0.000;0.000;2024-03-08T01:14:23;19.08;;;10.88;;
80647;SDS011;70012;0.000;0.000;2024-03-08T01:16:53;16.65;;;10.23;;
80647;SDS011;70012;0.000;0.000;2024-03-08T01:19:22;18.85;;;10.13;;
80647;SDS011;70012;0.000;0.000;2024-03-08T01:21:50;18.48;;;10.48;;
80647;SDS011;70012;0.000;0.000;2024-03-08T01:24:17;19.10;;;10.02;;
80647;SDS011;70012;0.000;0.000;2024-03-08T01:26:44;19.67;;;10.05;;
80647;SDS011;70012;0.000;0.000;2024-03-08T01:29:11;19.98;;;10.23;;
80647;SDS011;70012;0.000;0.000;2024-03-08T01:31:39;18.23;;;11.30;;
80647;SDS011;70012;0.000;0.000;2024-03-08T01:34:06;19.08;;;10.57;;
80647;SDS011;70012;0.000;0.000;2024-03-08T01:36:33;19.05;;;10.80;;
80647;SDS011;70012;0.000;0.000;2024-03-08T01:39:00;21.42;;;10.50;;
80647;SDS011;70012;0.000;0.000;2024-03-08T01:41:27;17.83;;;10.00;;
80647;SDS011;70012;0.000;0.000;2024-03-08T01:43:56;20.00;;;10.00;;
80647;SDS011;70012;0.000;0.000;2024-03-08T01:46:23;17.38;;;9.98;;
80647;SDS011;70012;0.000;0.000;2024-03-08T01:48:50;22.00;;;11.15;;
80647;SDS011;70012;0.000;0.000;2024-03-08T01:51:18;18.58;;;10.85;;
80647;SDS011;70012;0.000;0.000;2024-03-08T01:53:46;18.98;;;11.20;;
80647;SDS011;70012;0.000;0.000;2024-03-08T01:56:14;20.70;;;11.60;;
80647;SDS011;70012;0.000;0.000;2024-03-08T01:58:41;20.95;;;10.73;;
80647;SDS011;70012;0.000;0.000;2024-03-08T02:01:14;19.95;;;10.40;;
80647;SDS011;70012;0.000;0.000;2024-03-08T02:03:42;18.42;;;10.55;;
80647;SDS011;70012;0.000;0.000;2024-03-08T02:06:11;20.05;;;10.15;;
80647;SDS011;70012;0.000;0.000;2024-03-08T02:08:44;16.38;;;9.55;;
80647;SDS011;70012;0.000;0.000;2024-03-08T02:11:13;18.30;;;10.85;;
80647;SDS011;70012;0.000;0.000;2024-03-08T02:13:40;20.52;;;9.98;;
80647;SDS011;70012;0.000;0.000;2024-03-08T02:16:07;17.38;;;10.30;;
80647;SDS011;70012;0.000;0.000;2024-03-08T02:18:35;17.45;;;10.27;;
80647;SDS011;70012;0.000;0.000;2024-03-08T02:21:06;16.30;;;9.98;;
80647;SDS011;70012;0.000;0.000;2024-03-08T02:23:35;21.70;;;11.05;;
80647;SDS011;70012;0.000;0.000;2024-03-08T02:26:05;18.98;;;10.32;;
80647;SDS011;70012;0.000;0.000;2024-03-08T02:28:32;21.95;;;11.65;;
80647;SDS011;70012;0.000;0.000;2024-03-08T02:31:00;15.77;;;9.77;;
80647;SDS011;70012;0.000;0.000;2024-03-08T02:33:27;15.13;;;9.20;;
80647;SDS011;70012;0.000;0.000;2024-03-08T02:35:55;21.00;;;10.73;;
80647;SDS011;70012;0.000;0.000;2024-03-08T02:40:52;16.15;;;9.35;;
80647;SDS011;70012;0.000;0.000;2024-03-08T02:43:21;21.05;;;10.20;;
80647;SDS011;70012;0.000;0.000;2024-03-08T02:45:49;20.40;;;10.55;;
80647;SDS011;70012;0.000;0.000;2024-03-08T02:48:17;20.08;;;10.25;;
80647;SDS011;70012;0.000;0.000;2024-03-08T02:50:44;16.17;;;10.07;;
80647;SDS011;70012;0.000;0.000;2024-03-08T02:53:12;17.58;;;10.00;;
80647;SDS011;70012;0.000;0.000;2024-03-08T02:55:39;17.27;;;10.20;;
80647;SDS011;70012;0.000;0.000;2024-03-08T02:58:08;16.83;;;9.35;;
80647;SDS011;70012;0.000;0.000;2024-03-08T03:00:37;22.42;;;11.18;;
80647;SDS011;70012;0.000;0.000;2024-03-08T03:03:08;20.20;;;9.45;;
80647;SDS011;70012;0.000;0.000;2024-03-08T03:05:35;18.58;;;10.02;;
80647;SDS011;70012;0.000;0.000;2024-03-08T03:10:36;18.60;;;9.77;;
80647;SDS011;70012;0.000;0.000;2024-03-08T03:13:03;17.27;;;10.30;;
80647;SDS011;70012;0.000;0.000;2024-03-08T03:15:32;16.40;;;9.10;;
80647;SDS011;70012;0.000;0.000;2024-03-08T03:18:00;20.13;;;9.77;;
80647;SDS011;70012;0.000;0.000;2024-03-08T03:20:32;17.27;;;10.27;;
80647;SDS011;70012;0.000;0.000;2024-03-08T03:22:59;20.30;;;10.63;;
80647;SDS011;70012;0.000;0.000;2024-03-08T03:25:30;17.88;;;10.02;;
80647;SDS011;70012;0.000;0.000;2024-03-08T03:28:02;22.67;;;11.23;;
80647;SDS011;70012;0.000;0.000;2024-03-08T03:30:31;25.65;;;12.07;;
80647;SDS011;70012;0.000;0.000;2024-03-08T03:33:00;21.52;;;10.98;;
80647;SDS011;70012;0.000;0.000;2024-03-08T03:35:28;19.45;;;9.75;;
80647;SDS011;70012;0.000;0.000;2024-03-08T03:40:24;19.27;;;10.27;;
80647;SDS011;70012;0.000;0.000;2024-03-08T03:42:51;18.77;;;10.95;;
80647;SDS011;70012;0.000;0.000;2024-03-08T03:45:18;22.38;;;10.85;;
80647;SDS011;70012;0.000;0.000;2024-03-08T03:50:12;18.65;;;10.48;;
80647;SDS011;70012;0.000;0.000;2024-03-08T03:52:39;17.65;;;10.13;;
80647;SDS011;70012;0.000;0.000;2024-03-08T03:55:06;19.02;;;9.90;;
80647;SDS011;70012;0.000;0.000;2024-03-08T03:57:34;17.80;;;9.70;;
80647;SDS011;70012;0.000;0.000;2024-03-08T04:00:01;22.55;;;11.20;;
80647;SDS011;70012;0.000;0.000;2024-03-08T04:02:29;15.30;;;9.23;;
80647;SDS011;70012;0.000;0.000;2024-03-08T04:04:56;20.48;;;10.52;;
80647;SDS011;70012;0.000;0.000;2024-03-08T04:07:22;19.05;;;9.95;;
80647;SDS011;70012;0.000;0.000;2024-03-08T04:09:49;16.02;;;9.57;;
80647;SDS011;70012;0.000;0.000;2024-03-08T04:12:16;24.55;;;11.63;;
80647;SDS011;70012;0.000;0.000;2024-03-08T04:14:43;19.08;;;10.23;;
80647;SDS011;70012;0.000;0.000;2024-03-08T04:17:09;21.50;;;10.75;;
80647;SDS011;70012;0.000;0.000;2024-03-08T04:19:38;21.67;;;10.45;;
80647;SDS011;70012;0.000;0.000;2024-03-08T04:22:06;16.63;;;9.48;;
80647;SDS011;70012;0.000;0.000;2024-03-08T04:24:33;20.77;;;10.63;;
80647;SDS011;70012;0.000;0.000;2024-03-08T04:27:00;22.02;;;10.63;;
80647;SDS011;70012;0.000;0.000;2024-03-08T04:29:27;20.30;;;9.68;;
80647;SDS011;70012;0.000;0.000;2024-03-08T04:31:53;18.85;;;10.27;;
80647;SDS011;70012;0.000;0.000;2024-03-08T04:34:21;18.70;;;9.93;;
80647;SDS011;70012;0.000;0.000;2024-03-08T04:36:50;20.73;;;10.77;;
80647;SDS011;70012;0.000;0.000;2024-03-08T04:39:17;22.65;;;10.50;;
80647;SDS011;70012;0.000;0.000;2024-03-08T04:41:45;18.63;;;9.85;;
80647;SDS011;70012;0.000;0.000;2024-03-08T04:44:11;19.10;;;9.80;;
80647;SDS011;70012;0.000;0.000;2024-03-08T04:46:39;16.73;;;10.18;;
80647;SDS011;70012;0.000;0.000;2024-03-08T04:49:06;23.05;;;10.60;;
80647;SDS011;70012;0.000;0.000;2024-03-08T04:54:00;21.17;;;9.82;;
80647;SDS011;70012;0.000;0.000;2024-03-08T04:56:27;18.58;;;10.68;;
80647;SDS011;70012;0.000;0.000;2024-03-08T04:58:53;20.52;;;10.30;;
80647;SDS011;70012;0.000;0.000;2024-03-08T05:01:20;19.73;;;10.50;;
80647;SDS011;70012;0.000;0.000;2024-03-08T05:06:16;21.88;;;10.50;;
80647;SDS011;70012;0.000;0.000;2024-03-08T05:08:43;22.30;;;10.30;;
80647;SDS011;70012;0.000;0.000;2024-03-08T05:11:10;20.45;;;10.20;;
80647;SDS011;70012;0.000;0.000;2024-03-08T05:13:36;24.77;;;10.15;;
80647;SDS011;70012;0.000;0.000;2024-03-08T05:16:04;19.90;;;9.85;;
80647;SDS011;70012;0.000;0.000;2024-03-08T05:18:30;18.02;;;9.80;;
80647;SDS011;70012;0.000;0.000;2024-03-08T05:20:58;19.50;;;10.07;;
80647;SDS011;70012;0.000;0.000;2024-03-08T05:23:25;20.58;;;10.13;;
80647;SDS011;70012;0.000;0.000;2024-03-08T05:25:52;23.05;;;10.75;;
80647;SDS011;70012;0.000;0.000;2024-03-08T05:28:18;20.88;;;9.82;;
80647;SDS011;70012;0.000;0.000;2024-03-08T05:30:46;19.80;;;10.50;;
80647;SDS011;70012;0.000;0.000;2024-03-08T05:33:13;19.23;;;10.55;;
80647;SDS011;70012;0.000;0.000;2024-03-08T05:35:41;17.52;;;10.55;;
80647;SDS011;70012;0.000;0.000;2024-03-08T05:38:07;21.40;;;10.43;;
80647;SDS011;70012;0.000;0.000;2024-03-08T05:40:34;23.08;;;10.77;;
80647;SDS011;70012;0.000;0.000;2024-03-08T05:43:01;19.13;;;9.50;;
80647;SDS011;70012;0.000;0.000;2024-03-08T05:45:27;20.38;;;10.82;;
80647;SDS011;70012;0.000;0.000;2024-03-08T05:47:54;25.00;;;11.43;;
80647;SDS011;70012;0.000;0.000;2024-03-08T05:50:21;21.90;;;10.35;;
80647;SDS011;70012;0.000;0.000;2024-03-08T05:52:48;17.50;;;9.98;;
80647;SDS011;70012;0.000;0.000;2024-03-08T05:55:16;22.75;;;10.85;;
80647;SDS011;70012;0.000;0.000;2024-03-08T05:57:42;23.45;;;11.55;;
80647;SDS011;70012;0.000;0.000;2024-03-08T06:00:09;22.02;;;11.50;;
80647;SDS011;70012;0.000;0.000;2024-03-08T06:02:42;24.58;;;10.27;;
80647;SDS011;70012;0.000;0.000;2024-03-08T06:05:09;19.58;;;9.50;;
80647;SDS011;70012;0.000;0.000;2024-03-08T06:07:37;22.73;;;10.80;;
80647;SDS011;70012;0.000;0.000;2024-03-08T06:10:08;24.17;;;11.93;;
80647;SDS011;70012;0.000;0.000;2024-03-08T06:12:39;38.78;;;16.90;;
80647;SDS011;70012;0.000;0.000;2024-03-08T06:15:08;43.13;;;20.88;;
80647;SDS011;70012;0.000;0.000;2024-03-08T06:17:36;50.35;;;24.65;;
80647;SDS011;70012;0.000;0.000;2024-03-08T06:20:03;33.97;;;18.20;;
80647;SDS011;70012;0.000;0.000;2024-03-08T06:22:37;26.02;;;12.73;;
80647;SDS011;70012;0.000;0.000;2024-03-08T06:25:10;23.63;;;11.95;;
80647;SDS011;70012;0.000;0.000;2024-03-08T06:27:40;24.85;;;13.38;;
80647;SDS011;70012;0.000;0.000;2024-03-08T06:30:09;25.40;;;12.35;;
80647;SDS011;70012;0.000;0.000;2024-03-08T06:32:36;20.02;;;10.80;;
80647;SDS011;70012;0.000;0.000;2024-03-08T06:35:04;24.98;;;11.35;;
80647;SDS011;70012;0.000;0.000;2024-03-08T06:37:32;22.00;;;11.00;;
80647;SDS011;70012;0.000;0.000;2024-03-08T06:39:59;19.63;;;10.30;;
80647;SDS011;70012;0.000;0.000;2024-03-08T06:42:27;25.00;;;12.43;;
80647;SDS011;70012;0.000;0.000;2024-03-08T06:44:54;23.08;;;11.25;;
80647;SDS011;70012;0.000;0.000;2024-03-08T06:47:26;26.20;;;12.27;;
80647;SDS011;70012;0.000;0.000;2024-03-08T06:49:52;27.83;;;12.63;;
80647;SDS011;70012;0.000;0.000;2024-03-08T06:52:19;23.63;;;12.63;;
80647;SDS011;70012;0.000;0.000;2024-03-08T06:54:46;22.08;;;12.57;;
80647;SDS011;70012;0.000;0.000;2024-03-08T06:57:12;21.52;;;11.75;;
80647;SDS011;70012;0.000;0.000;2024-03-08T06:59:40;22.38;;;11.15;;
80647;SDS011;70012;0.000;0.000;2024-03-08T07:02:07;25.67;;;12.98;;
80647;SDS011;70012;0.000;0.000;2024-03-08T07:04:35;23.90;;;11.63;;
80647;SDS011;70012;0.000;0.000;2024-03-08T07:07:04;24.45;;;11.32;;
80647;SDS011;70012;0.000;0.000;2024-03-08T07:09:31;24.67;;;11.93;;
80647;SDS011;70012;0.000;0.000;2024-03-08T07:11:58;22.02;;;10.43;;
80647;SDS011;70012;0.000;0.000;2024-03-08T07:14:25;24.70;;;11.43;;
80647;SDS011;70012;0.000;0.000;2024-03-08T07:16:52;22.38;;;10.82;;
80647;SDS011;70012;0.000;0.000;2024-03-08T07:19:19;26.33;;;12.77;;
80647;SDS011;70012;0.000;0.000;2024-03-08T07:21:46;25.00;;;11.75;;
80647;SDS011;70012;0.000;0.000;2024-03-08T07:24:13;23.17;;;11.55;;
80647;SDS011;70012;0.000;0.000;2024-03-08T07:26:43;25.95;;;12.20;;
80647;SDS011;70012;0.000;0.000;2024-03-08T07:29:10;27.75;;;12.25;;
80647;SDS011;70012;0.000;0.000;2024-03-08T07:31:37;25.25;;;12.52;;
80647;SDS011;70012;0.000;0.000;2024-03-08T07:34:03;23.45;;;12.73;;
80647;SDS011;70012;0.000;0.000;2024-03-08T07:36:34;22.52;;;11.20;;
80647;SDS011;70012;0.000;0.000;2024-03-08T07:39:03;22.50;;;11.70;;
80647;SDS011;70012;0.000;0.000;2024-03-08T07:41:35;26.45;;;13.27;;
80647;SDS011;70012;0.000;0.000;2024-03-08T07:44:03;23.55;;;12.45;;
80647;SDS011;70012;0.000;0.000;2024-03-08T07:46:30;24.30;;;12.13;;
80647;SDS011;70012;0.000;0.000;2024-03-08T07:48:57;23.73;;;12.23;;
80647;SDS011;70012;0.000;0.000;2024-03-08T07:51:24;19.27;;;10.73;;
80647;SDS011;70012;0.000;0.000;2024-03-08T07:53:51;25.23;;;12.50;;
80647;SDS011;70012;0.000;0.000;2024-03-08T07:56:17;26.15;;;10.95;;
80647;SDS011;70012;0.000;0.000;2024-03-08T07:58:45;23.77;;;12.23;;
80647;SDS011;70012;0.000;0.000;2024-03-08T08:01:18;23.88;;;12.30;;
80647;SDS011;70012;0.000;0.000;2024-03-08T08:03:45;26.63;;;11.90;;
80647;SDS011;70012;0.000;0.000;2024-03-08T08:06:12;23.92;;;12.30;;
80647;SDS011;70012;0.000;0.000;2024-03-08T08:08:42;22.67;;;11.65;;
80647;SDS011;70012;0.000;0.000;2024-03-08T08:11:09;20.30;;;11.25;;
80647;SDS011;70012;0.000;0.000;2024-03-08T08:13:37;22.25;;;11.65;;
80647;SDS011;70012;0.000;0.000;2024-03-08T08:16:05;25.45;;;12.38;;
80647;SDS011;70012;0.000;0.000;2024-03-08T08:20:59;26.02;;;11.45;;
80647;SDS011;70012;0.000;0.000;2024-03-08T08:23:29;25.35;;;10.88;;
80647;SDS011;70012;0.000;0.000;2024-03-08T08:25:58;27.63;;;12.85;;
80647;SDS011;70012;0.000;0.000;2024-03-08T08:28:25;22.67;;;12.23;;
80647;SDS011;70012;0.000;0.000;2024-03-08T08:30:52;27.52;;;11.88;;
80647;SDS011;70012;0.000;0.000;2024-03-08T08:33:18;25.90;;;11.05;;
80647;SDS011;70012;0.000;0.000;2024-03-08T08:35:45;23.88;;;11.85;;
80647;SDS011;70012;0.000;0.000;2024-03-08T08:38:14;23.33;;;12.48;;
80647;SDS011;70012;0.000;0.000;2024-03-08T08:40:40;23.60;;;12.00;;
80647;SDS011;70012;0.000;0.000;2024-03-08T08:43:07;22.88;;;12.48;;
80647;SDS011;70012;0.000;0.000;2024-03-08T08:45:35;24.38;;;12.13;;
80647;SDS011;70012;0.000;0.000;2024-03-08T08:48:01;25.30;;;11.93;;
80647;SDS011;70012;0.000;0.000;2024-03-08T08:50:29;21.02;;;12.65;;
80647;SDS011;70012;0.000;0.000;2024-03-08T08:52:55;22.02;;;12.05;;
80647;SDS011;70012;0.000;0.000;2024-03-08T08:55:22;21.55;;;10.27;;
80647;SDS011;70012;0.000;0.000;2024-03-08T08:57:53;22.08;;;11.35;;
80647;SDS011;70012;0.000;0.000;2024-03-08T09:00:20;24.63;;;11.65;;
80647;SDS011;70012;0.000;0.000;2024-03-08T09:02:48;18.70;;;10.23;;
80647;SDS011;70012;0.000;0.000;2024-03-08T09:05:14;19.98;;;10.57;;
80647;SDS011;70012;0.000;0.000;2024-03-08T09:07:43;20.80;;;10.73;;
80647;SDS011;70012;0.000;0.000;2024-03-08T09:10:13;17.63;;;11.00;;
80647;SDS011;70012;0.000;0.000;2024-03-08T09:12:43;19.52;;;10.70;;
80647;SDS011;70012;0.000;0.000;2024-03-08T09:15:10;21.05;;;11.75;;
80647;SDS011;70012;0.000;0.000;2024-03-08T09:17:40;18.77;;;9.75;;
80647;SDS011;70012;0.000;0.000;2024-03-08T09:20:08;19.77;;;10.57;;
80647;SDS011;70012;0.000;0.000;2024-03-08T09:22:37;20.20;;;10.20;;
80647;SDS011;70012;0.000;0.000;2024-03-08T09:25:04;15.82;;;9.10;;
80647;SDS011;70012;0.000;0.000;2024-03-08T09:27:32;18.25;;;10.05;;
80647;SDS011;70012;0.000;0.000;2024-03-08T09:30:01;18.33;;;9.93;;
80647;SDS011;70012;0.000;0.000;2024-03-08T09:34:54;14.55;;;8.70;;
80647;SDS011;70012;0.000;0.000;2024-03-08T09:37:22;16.05;;;8.80;;
80647;SDS011;70012;0.000;0.000;2024-03-08T09:39:49;18.10;;;9.80;;
80647;SDS011;70012;0.000;0.000;2024-03-08T09:42:16;19.25;;;10.35;;
80647;SDS011;70012;0.000;0.000;2024-03-08T09:44:46;18.80;;;9.50;;
80647;SDS011;70012;0.000;0.000;2024-03-08T09:47:13;15.18;;;9.05;;
80647;SDS011;70012;0.000;0.000;2024-03-08T09:49:41;17.23;;;9.68;;
80647;SDS011;70012;0.000;0.000;2024-03-08T09:52:08;16.35;;;8.90;;
80647;SDS011;70012;0.000;0.000;2024-03-08T09:54:36;16.83;;;8.50;;
80647;SDS011;70012;0.000;0.000;2024-03-08T09:57:06;17.95;;;10.05;;
80647;SDS011;70012;0.000;0.000;2024-03-08T09:59:35;16.40;;;9.02;;
80647;SDS011;70012;0.000;0.000;2024-03-08T10:02:02;15.30;;;9.75;;
80647;SDS011;70012;0.000;0.000;2024-03-08T10:04:29;15.68;;;8.60;;
80647;SDS011;70012;0.000;0.000;2024-03-08T10:06:57;13.90;;;9.13;;
80647;SDS011;70012;0.000;0.000;2024-03-08T10:09:25;17.27;;;8.93;;
80647;SDS011;70012;0.000;0.000;2024-03-08T10:11:55;17.60;;;9.82;;
80647;SDS011;70012;0.000;0.000;2024-03-08T10:14:24;14.63;;;8.65;;
80647;SDS011;70012;0.000;0.000;2024-03-08T10:16:53;16.73;;;9.13;;
80647;SDS011;70012;0.000;0.000;2024-03-08T10:19:20;15.45;;;8.95;;
80647;SDS011;70012;0.000;0.000;2024-03-08T10:21:51;15.55;;;7.72;;
80647;SDS011;70012;0.000;0.000;2024-03-08T10:24:20;14.65;;;7.93;;
80647;SDS011;70012;0.000;0.000;2024-03-08T10:26:46;16.33;;;9.13;;
80647;SDS011;70012;0.000;0.000;2024-03-08T10:29:14;15.43;;;9.23;;
80647;SDS011;70012;0.000;0.000;2024-03-08T10:31:44;15.40;;;9.38;;
80647;SDS011;70012;0.000;0.000;2024-03-08T10:34:13;14.95;;;8.88;;
80647;SDS011;70012;0.000;0.000;2024-03-08T10:36:40;14.90;;;7.90;;
80647;SDS011;70012;0.000;0.000;2024-03-08T10:39:12;11.63;;;7.28;;
80647;SDS011;70012;0.000;0.000;2024-03-08T10:41:52;13.90;;;8.45;;
80647;SDS011;70012;0.000;0.000;2024-03-08T10:44:32;14.02;;;7.90;;
80647;SDS011;70012;0.000;0.000;2024-03-08T10:47:15;14.30;;;8.65;;
80647;SDS011;70012;0.000;0.000;2024-03-08T10:49:55;16.90;;;8.40;;
80647;SDS011;70012;0.000;0.000;2024-03-08T10:52:34;13.70;;;7.75;;
80647;SDS011;70012;0.000;0.000;2024-03-08T10:55:03;14.40;;;7.82;;
80647;SDS011;70012;0.000;0.000;2024-03-08T10:57:39;14.98;;;8.57;;
80647;SDS011;70012;0.000;0.000;2024-03-08T11:00:07;12.07;;;7.70;;
80647;SDS011;70012;0.000;0.000;2024-03-08T11:02:38;14.07;;;8.35;;
80647;SDS011;70012;0.000;0.000;2024-03-08T11:05:05;13.80;;;7.78;;
80647;SDS011;70012;0.000;0.000;2024-03-08T11:07:42;12.95;;;7.82;;
80647;SDS011;70012;0.000;0.000;2024-03-08T11:10:18;14.00;;;8.90;;
80647;SDS011;70012;0.000;0.000;2024-03-08T11:12:46;10.82;;;6.57;;
80647;SDS011;70012;0.000;0.000;2024-03-08T11:15:14;14.02;;;7.03;;
80647;SDS011;70012;0.000;0.000;2024-03-08T11:17:48;10.85;;;7.00;;
80647;SDS011;70012;0.000;0.000;2024-03-08T11:20:16;12.65;;;7.13;;
80647;SDS011;70012;0.000;0.000;2024-03-08T11:22:48;11.90;;;7.55;;
80647;SDS011;70012;0.000;0.000;2024-03-08T11:25:34;10.35;;;7.20;;
80647;SDS011;70012;0.000;0.000;2024-03-08T11:28:19;12.02;;;7.88;;
80647;SDS011;70012;0.000;0.000;2024-03-08T11:33:28;11.48;;;7.13;;
80647;SDS011;70012;0.000;0.000;2024-03-08T11:38:33;12.13;;;7.40;;
80647;SDS011;70012;0.000;0.000;2024-03-08T11:41:19;15.95;;;8.07;;
80647;SDS011;70012;0.000;0.000;2024-03-08T11:43:47;21.85;;;10.90;;
80647;SDS011;70012;0.000;0.000;2024-03-08T11:46:15;12.38;;;7.32;;
80647;SDS011;70012;0.000;0.000;2024-03-08T11:48:43;14.00;;;7.88;;
80647;SDS011;70012;0.000;0.000;2024-03-08T11:51:13;13.05;;;8.20;;
80647;SDS011;70012;0.000;0.000;2024-03-08T11:53:41;19.25;;;9.05;;
80647;SDS011;70012;0.000;0.000;2024-03-08T11:56:13;17.13;;;9.25;;
80647;SDS011;70012;0.000;0.000;2024-03-08T11:58:40;13.63;;;7.95;;
80647;SDS011;70012;0.000;0.000;2024-03-08T12:01:09;14.23;;;8.00;;
80647;SDS011;70012;0.000;0.000;2024-03-08T12:03:39;12.95;;;7.55;;
80647;SDS011;70012;0.000;0.000;2024-03-08T12:06:09;13.40;;;7.55;;
80647;SDS011;70012;0.000;0.000;2024-03-08T12:08:41;16.42;;;7.00;;
80647;SDS011;70012;0.000;0.000;2024-03-08T12:13:37;14.23;;;7.57;;
80647;SDS011;70012;0.000;0.000;2024-03-08T12:21:05;10.93;;;6.85;;
80647;SDS011;70012;0.000;0.000;2024-03-08T12:23:37;13.80;;;7.45;;
80647;SDS011;70012;0.000;0.000;2024-03-08T12:26:12;12.60;;;7.15;;
80647;SDS011;70012;0.000;0.000;2024-03-08T12:28:43;11.02;;;7.28;;
80647;SDS011;70012;0.000;0.000;2024-03-08T12:31:14;13.07;;;7.82;;
80647;SDS011;70012;0.000;0.000;2024-03-08T12:33:52;13.40;;;8.60;;
80647;SDS011;70012;0.000;0.000;2024-03-08T12:36:23;12.98;;;7.50;;
80647;SDS011;70012;0.000;0.000;2024-03-08T12:38:50;12.73;;;7.18;;
80647;SDS011;70012;0.000;0.000;2024-03-08T12:41:18;12.30;;;7.10;;
80647;SDS011;70012;0.000;0.000;2024-03-08T12:43:46;11.35;;;7.10;;
80647;SDS011;70012;0.000;0.000;2024-03-08T12:46:16;12.55;;;6.95;;
80647;SDS011;70012;0.000;0.000;2024-03-08T12:48:47;12.13;;;6.72;;
80647;SDS011;70012;0.000;0.000;2024-03-08T12:51:17;9.73;;;6.60;;
80647;SDS011;70012;0.000;0.000;2024-03-08T12:53:45;12.25;;;7.03;;
80647;SDS011;70012;0.000;0.000;2024-03-08T12:56:19;10.52;;;6.90;;
80647;SDS011;70012;0.000;0.000;2024-03-08T13:03:49;11.18;;;6.75;;
80647;SDS011;70012;0.000;0.000;2024-03-08T13:06:21;12.55;;;6.57;;
80647;SDS011;70012;0.000;0.000;2024-03-08T13:08:51;11.25;;;7.30;;
80647;SDS011;70012;0.000;0.000;2024-03-08T13:11:22;10.52;;;7.03;;
80647;SDS011;70012;0.000;0.000;2024-03-08T13:13:53;9.98;;;6.35;;
80647;SDS011;70012;0.000;0.000;2024-03-08T13:16:20;12.02;;;7.20;;
80647;SDS011;70012;0.000;0.000;2024-03-08T13:18:47;12.93;;;6.65;;
80647;SDS011;70012;0.000;0.000;2024-03-08T13:21:20;13.02;;;6.80;;
80647;SDS011;70012;0.000;0.000;2024-03-08T13:23:50;13.23;;;7.35;;
80647;SDS011;70012;0.000;0.000;2024-03-08T13:26:19;12.20;;;6.80;;
80647;SDS011;70012;0.000;0.000;2024-03-08T13:28:46;11.32;;;7.00;;
80647;SDS011;70012;0.000;0.000;2024-03-08T13:31:20;10.85;;;6.57;;
80647;SDS011;70012;0.000;0.000;2024-03-08T13:33:47;9.77;;;6.20;;
80647;SDS011;70012;0.000;0.000;2024-03-08T13:36:14;11.45;;;7.22;;
80647;SDS011;70012;0.000;0.000;2024-03-08T13:41:10;10.88;;;6.57;;
80647;SDS011;70012;0.000;0.000;2024-03-08T13:43:41;13.65;;;7.35;;
80647;SDS011;70012;0.000;0.000;2024-03-08T13:46:08;11.48;;;7.05;;
80647;SDS011;70012;0.000;0.000;2024-03-08T13:48:36;12.73;;;7.10;;
80647;SDS011;70012;0.000;0.000;2024-03-08T13:51:07;12.70;;;7.18;;
80647;SDS011;70012;0.000;0.000;2024-03-08T13:53:36;13.45;;;6.43;;
80647;SDS011;70012;0.000;0.000;2024-03-08T13:56:03;11.10;;;7.20;;
80647;SDS011;70012;0.000;0.000;2024-03-08T13:58:34;10.43;;;6.20;;
80647;SDS011;70012;0.000;0.000;2024-03-08T14:01:01;10.35;;;6.38;;
80647;SDS011;70012;0.000;0.000;2024-03-08T14:03:29;12.18;;;7.20;;
80647;SDS011;70012;0.000;0.000;2024-03-08T14:05:56;13.18;;;6.97;;
80647;SDS011;70012;0.000;0.000;2024-03-08T14:08:23;11.77;;;6.55;;
80647;SDS011;70012;0.000;0.000;2024-03-08T14:10:51;11.18;;;7.50;;
80647;SDS011;70012;0.000;0.000;2024-03-08T14:13:20;11.98;;;7.00;;
80647;SDS011;70012;0.000;0.000;2024-03-08T14:15:47;9.73;;;6.78;;
80647;SDS011;70012;0.000;0.000;2024-03-08T14:18:14;12.40;;;6.60;;
80647;SDS011;70012;0.000;0.000;2024-03-08T14:20:42;10.88;;;6.85;;
80647;SDS011;70012;0.000;0.000;2024-03-08T14:23:08;11.55;;;6.53;;
80647;SDS011;70012;0.000;0.000;2024-03-08T14:25:35;10.13;;;6.15;;
80647;SDS011;70012;0.000;0.000;2024-03-08T14:28:02;12.18;;;6.30;;
80647;SDS011;70012;0.000;0.000;2024-03-08T14:30:33;10.95;;;6.57;;
80647;SDS011;70012;0.000;0.000;2024-03-08T14:33:07;12.48;;;7.60;;
80647;SDS011;70012;0.000;0.000;2024-03-08T14:35:37;11.77;;;6.63;;
80647;SDS011;70012;0.000;0.000;2024-03-08T14:38:04;11.65;;;6.25;;
80647;SDS011;70012;0.000;0.000;2024-03-08T14:40:35;10.80;;;6.45;;
80647;SDS011;70012;0.000;0.000;2024-03-08T14:43:03;9.95;;;6.32;;
80647;SDS011;70012;0.000;0.000;2024-03-08T14:45:32;11.73;;;6.88;;
80647;SDS011;70012;0.000;0.000;2024-03-08T14:50:26;15.30;;;6.90;;
80647;SDS011;70012;0.000;0.000;2024-03-08T14:52:52;11.10;;;6.53;;
80647;SDS011;70012;0.000;0.000;2024-03-08T14:55:19;10.02;;;6.32;;
80647;SDS011;70012;0.000;0.000;2024-03-08T14:57:50;10.98;;;6.70;;
80647;SDS011;70012;0.000;0.000;2024-03-08T15:00:18;10.40;;;6.38;;
80647;SDS011;70012;0.000;0.000;2024-03-08T15:02:53;10.23;;;6.13;;
80647;SDS011;70012;0.000;0.000;2024-03-08T15:05:20;11.65;;;6.70;;
80647;SDS011;70012;0.000;0.000;2024-03-08T15:07:47;11.63;;;6.22;;
80647;SDS011;70012;0.000;0.000;2024-03-08T15:10:15;10.65;;;6.55;;
80647;SDS011;70012;0.000;0.000;2024-03-08T15:12:44;11.50;;;6.95;;
80647;SDS011;70012;0.000;0.000;2024-03-08T15:15:17;13.68;;;7.63;;
80647;SDS011;70012;0.000;0.000;2024-03-08T15:17:44;13.38;;;7.38;;
80647;SDS011;70012;0.000;0.000;2024-03-08T15:20:13;11.27;;;6.65;;
80647;SDS011;70012;0.000;0.000;2024-03-08T15:22:43;11.55;;;6.90;;
80647;SDS011;70012;0.000;0.000;2024-03-08T15:25:13;11.75;;;6.93;;
80647;SDS011;70012;0.000;0.000;2024-03-08T15:30:14;16.35;;;6.95;;
80647;SDS011;70012;0.000;0.000;2024-03-08T15:32:46;11.55;;;6.55;;
80647;SDS011;70012;0.000;0.000;2024-03-08T15:35:23;10.55;;;6.65;;
80647;SDS011;70012;0.000;0.000;2024-03-08T15:37:52;13.27;;;6.80;;
80647;SDS011;70012;0.000;0.000;2024-03-08T15:40:22;11.90;;;7.18;;
80647;SDS011;70012;0.000;0.000;2024-03-08T15:45:21;11.95;;;6.63;;